sensor_id;sensor_type;location;lat;lon;timestamp;P1;durP1;ratioP1;P2;durP2;ratioP2
56161;SDS011;42045;52.986;6.014;2022-09-03T00:02:18;7.88;;;1.75;;
56161;SDS011;42045;52.986;6.014;2022-09-03T00:08:00;2.20;;;1.55;;
56161;SDS011;42045;52.986;6.014;2022-09-03T00:13:28;5.47;;;1.48;;
56161;SDS011;42045;52.986;6.014;2022-09-03T00:16:08;5.00;;;1.50;;
56161;SDS011;42045;52.986;6.014;2022-09-03T00:18:42;2.70;;;1.55;;
56161;SDS011;42045;52.986;6.014;2022-09-03T00:21:14;4.72;;;1.65;;
56161;SDS011;42045;52.986;6.014;2022-09-03T00:23:43;3.80;;;1.40;;
56161;SDS011;42045;52.986;6.014;2022-09-03T00:28:40;4.25;;;1.50;;
56161;SDS011;42045;52.986;6.014;2022-09-03T00:31:11;7.38;;;1.45;;
56161;SDS011;42045;52.986;6.014;2022-09-03T00:33:43;2.97;;;1.70;;
56161;SDS011;42045;52.986;6.014;2022-09-03T00:38:46;2.85;;;1.27;;
56161;SDS011;42045;52.986;6.014;2022-09-03T00:44:41;4.15;;;1.50;;
56161;SDS011;42045;52.986;6.014;2022-09-03T00:46:59;4.22;;;1.33;;
56161;SDS011;42045;52.986;6.014;2022-09-03T00:49:54;2.33;;;1.45;;
56161;SDS011;42045;52.986;6.014;2022-09-03T00:52:40;5.80;;;1.40;;
56161;SDS011;42045;52.986;6.014;2022-09-03T00:55:38;2.40;;;1.48;;
56161;SDS011;42045;52.986;6.014;2022-09-03T00:58:30;4.95;;;1.25;;
56161;SDS011;42045;52.986;6.014;2022-09-03T01:01:04;3.20;;;1.40;;
56161;SDS011;42045;52.986;6.014;2022-09-03T01:20:16;2.15;;;1.23;;
56161;SDS011;42045;52.986;6.014;2022-09-03T01:23:08;3.95;;;1.25;;
56161;SDS011;42045;52.986;6.014;2022-09-03T01:25:57;3.92;;;1.40;;
56161;SDS011;42045;52.986;6.014;2022-09-03T01:51:13;3.67;;;1.20;;
56161;SDS011;42045;52.986;6.014;2022-09-03T01:56:30;4.10;;;1.85;;
56161;SDS011;42045;52.986;6.014;2022-09-03T01:59:29;4.13;;;1.50;;
56161;SDS011;42045;52.986;6.014;2022-09-03T02:02:25;3.35;;;1.23;;
56161;SDS011;42045;52.986;6.014;2022-09-03T02:05:09;4.75;;;1.30;;
56161;SDS011;42045;52.986;6.014;2022-09-03T02:07:40;4.63;;;1.52;;
56161;SDS011;42045;52.986;6.014;2022-09-03T02:10:13;6.18;;;1.30;;
56161;SDS011;42045;52.986;6.014;2022-09-03T02:12:53;3.25;;;1.02;;
56161;SDS011;42045;52.986;6.014;2022-09-03T02:15:23;1.98;;;1.15;;
56161;SDS011;42045;52.986;6.014;2022-09-03T02:17:50;8.07;;;1.85;;
56161;SDS011;42045;52.986;6.014;2022-09-03T02:20:22;4.82;;;1.40;;
56161;SDS011;42045;52.986;6.014;2022-09-03T02:22:51;2.08;;;1.10;;
56161;SDS011;42045;52.986;6.014;2022-09-03T02:25:18;4.05;;;1.02;;
56161;SDS011;42045;52.986;6.014;2022-09-03T02:27:47;2.78;;;0.90;;
56161;SDS011;42045;52.986;6.014;2022-09-03T02:30:13;5.53;;;1.23;;
56161;SDS011;42045;52.986;6.014;2022-09-03T02:32:39;5.68;;;1.40;;
56161;SDS011;42045;52.986;6.014;2022-09-03T02:35:09;4.72;;;1.10;;
56161;SDS011;42045;52.986;6.014;2022-09-03T02:37:35;5.18;;;1.45;;
56161;SDS011;42045;52.986;6.014;2022-09-03T02:40:01;3.35;;;0.85;;
56161;SDS011;42045;52.986;6.014;2022-09-03T02:42:31;2.22;;;1.38;;
56161;SDS011;42045;52.986;6.014;2022-09-03T02:44:59;4.25;;;1.20;;
56161;SDS011;42045;52.986;6.014;2022-09-03T02:47:38;4.00;;;1.20;;
56161;SDS011;42045;52.986;6.014;2022-09-03T02:50:05;2.92;;;1.15;;
56161;SDS011;42045;52.986;6.014;2022-09-03T02:52:31;3.22;;;0.95;;
56161;SDS011;42045;52.986;6.014;2022-09-03T02:54:57;1.92;;;1.17;;
56161;SDS011;42045;52.986;6.014;2022-09-03T02:57:23;3.33;;;1.30;;
56161;SDS011;42045;52.986;6.014;2022-09-03T02:59:48;4.15;;;1.15;;
56161;SDS011;42045;52.986;6.014;2022-09-03T03:02:14;3.70;;;1.40;;
56161;SDS011;42045;52.986;6.014;2022-09-03T03:04:40;3.60;;;1.40;;
56161;SDS011;42045;52.986;6.014;2022-09-03T03:07:06;3.88;;;1.00;;
56161;SDS011;42045;52.986;6.014;2022-09-03T03:09:32;2.08;;;0.98;;
56161;SDS011;42045;52.986;6.014;2022-09-03T03:11:57;5.68;;;1.40;;
56161;SDS011;42045;52.986;6.014;2022-09-03T03:14:23;4.78;;;1.38;;
56161;SDS011;42045;52.986;6.014;2022-09-03T03:16:49;2.35;;;1.20;;
56161;SDS011;42045;52.986;6.014;2022-09-03T03:19:15;4.43;;;1.20;;
56161;SDS011;42045;52.986;6.014;2022-09-03T03:21:41;3.05;;;1.20;;
56161;SDS011;42045;52.986;6.014;2022-09-03T03:24:08;5.07;;;1.02;;
56161;SDS011;42045;52.986;6.014;2022-09-03T03:26:34;6.03;;;2.47;;
56161;SDS011;42045;52.986;6.014;2022-09-03T03:29:00;4.05;;;1.00;;
56161;SDS011;42045;52.986;6.014;2022-09-03T03:31:29;4.07;;;1.63;;
56161;SDS011;42045;52.986;6.014;2022-09-03T03:33:55;3.22;;;1.05;;
56161;SDS011;42045;52.986;6.014;2022-09-03T03:36:24;2.80;;;1.10;;
56161;SDS011;42045;52.986;6.014;2022-09-03T03:38:56;5.05;;;1.23;;
56161;SDS011;42045;52.986;6.014;2022-09-03T03:41:24;4.63;;;1.40;;
56161;SDS011;42045;52.986;6.014;2022-09-03T03:43:52;4.32;;;1.38;;
56161;SDS011;42045;52.986;6.014;2022-09-03T03:46:22;4.55;;;1.00;;
56161;SDS011;42045;52.986;6.014;2022-09-03T03:48:49;3.00;;;1.42;;
56161;SDS011;42045;52.986;6.014;2022-09-03T03:51:16;1.70;;;1.00;;
56161;SDS011;42045;52.986;6.014;2022-09-03T03:53:42;6.57;;;1.33;;
56161;SDS011;42045;52.986;6.014;2022-09-03T03:56:09;3.00;;;1.15;;
56161;SDS011;42045;52.986;6.014;2022-09-03T03:58:36;3.63;;;1.10;;
56161;SDS011;42045;52.986;6.014;2022-09-03T04:01:07;1.17;;;1.00;;
56161;SDS011;42045;52.986;6.014;2022-09-03T04:03:33;3.83;;;0.90;;
56161;SDS011;42045;52.986;6.014;2022-09-03T04:06:00;1.77;;;1.20;;
56161;SDS011;42045;52.986;6.014;2022-09-03T04:08:27;1.42;;;1.10;;
56161;SDS011;42045;52.986;6.014;2022-09-03T04:10:53;1.88;;;0.90;;
56161;SDS011;42045;52.986;6.014;2022-09-03T04:13:19;1.75;;;1.08;;
56161;SDS011;42045;52.986;6.014;2022-09-03T04:15:45;2.85;;;1.10;;
56161;SDS011;42045;52.986;6.014;2022-09-03T04:18:10;3.88;;;1.10;;
56161;SDS011;42045;52.986;6.014;2022-09-03T04:20:36;1.73;;;1.00;;
56161;SDS011;42045;52.986;6.014;2022-09-03T04:23:02;6.05;;;1.30;;
56161;SDS011;42045;52.986;6.014;2022-09-03T04:25:29;3.00;;;1.17;;
56161;SDS011;42045;52.986;6.014;2022-09-03T04:27:54;5.00;;;1.00;;
56161;SDS011;42045;52.986;6.014;2022-09-03T04:30:25;5.30;;;1.33;;
56161;SDS011;42045;52.986;6.014;2022-09-03T04:32:51;4.55;;;1.00;;
56161;SDS011;42045;52.986;6.014;2022-09-03T04:35:17;4.88;;;1.15;;
56161;SDS011;42045;52.986;6.014;2022-09-03T04:37:45;5.63;;;1.33;;
56161;SDS011;42045;52.986;6.014;2022-09-03T04:40:11;5.28;;;1.27;;
56161;SDS011;42045;52.986;6.014;2022-09-03T04:42:37;2.53;;;1.10;;
56161;SDS011;42045;52.986;6.014;2022-09-03T04:45:03;3.22;;;1.20;;
56161;SDS011;42045;52.986;6.014;2022-09-03T04:47:29;2.08;;;1.00;;
56161;SDS011;42045;52.986;6.014;2022-09-03T04:49:55;4.85;;;1.25;;
56161;SDS011;42045;52.986;6.014;2022-09-03T04:52:21;3.58;;;1.63;;
56161;SDS011;42045;52.986;6.014;2022-09-03T04:54:46;1.45;;;0.93;;
56161;SDS011;42045;52.986;6.014;2022-09-03T04:57:12;4.28;;;1.30;;
56161;SDS011;42045;52.986;6.014;2022-09-03T04:59:38;3.90;;;1.30;;
56161;SDS011;42045;52.986;6.014;2022-09-03T05:02:05;2.83;;;1.27;;
56161;SDS011;42045;52.986;6.014;2022-09-03T05:04:32;3.35;;;1.05;;
56161;SDS011;42045;52.986;6.014;2022-09-03T05:07:01;2.97;;;1.10;;
56161;SDS011;42045;52.986;6.014;2022-09-03T05:09:26;2.90;;;1.25;;
56161;SDS011;42045;52.986;6.014;2022-09-03T05:11:52;2.25;;;1.10;;
56161;SDS011;42045;52.986;6.014;2022-09-03T05:14:18;2.63;;;1.38;;
56161;SDS011;42045;52.986;6.014;2022-09-03T05:16:44;2.28;;;1.30;;
56161;SDS011;42045;52.986;6.014;2022-09-03T05:19:11;2.03;;;1.30;;
56161;SDS011;42045;52.986;6.014;2022-09-03T05:21:37;2.60;;;1.20;;
56161;SDS011;42045;52.986;6.014;2022-09-03T05:24:03;3.92;;;1.42;;
56161;SDS011;42045;52.986;6.014;2022-09-03T05:26:34;3.70;;;1.27;;
56161;SDS011;42045;52.986;6.014;2022-09-03T05:29:02;2.30;;;1.40;;
56161;SDS011;42045;52.986;6.014;2022-09-03T05:31:37;3.55;;;1.20;;
56161;SDS011;42045;52.986;6.014;2022-09-03T05:34:04;2.45;;;1.13;;
56161;SDS011;42045;52.986;6.014;2022-09-03T05:36:34;2.33;;;1.05;;
56161;SDS011;42045;52.986;6.014;2022-09-03T05:39:01;3.33;;;1.08;;
56161;SDS011;42045;52.986;6.014;2022-09-03T05:41:29;4.05;;;1.40;;
56161;SDS011;42045;52.986;6.014;2022-09-03T05:43:55;3.35;;;1.13;;
56161;SDS011;42045;52.986;6.014;2022-09-03T05:46:24;1.60;;;1.02;;
56161;SDS011;42045;52.986;6.014;2022-09-03T05:48:58;3.03;;;1.02;;
56161;SDS011;42045;52.986;6.014;2022-09-03T05:51:26;5.50;;;1.63;;
56161;SDS011;42045;52.986;6.014;2022-09-03T05:53:52;2.83;;;1.25;;
56161;SDS011;42045;52.986;6.014;2022-09-03T05:56:20;3.95;;;1.05;;
56161;SDS011;42045;52.986;6.014;2022-09-03T05:58:48;4.40;;;1.30;;
56161;SDS011;42045;52.986;6.014;2022-09-03T06:01:17;2.85;;;1.20;;
56161;SDS011;42045;52.986;6.014;2022-09-03T06:03:45;3.47;;;1.10;;
56161;SDS011;42045;52.986;6.014;2022-09-03T06:06:12;2.58;;;1.17;;
56161;SDS011;42045;52.986;6.014;2022-09-03T06:08:42;4.43;;;1.20;;
56161;SDS011;42045;52.986;6.014;2022-09-03T06:11:09;2.28;;;1.10;;
56161;SDS011;42045;52.986;6.014;2022-09-03T06:13:35;1.98;;;1.30;;
56161;SDS011;42045;52.986;6.014;2022-09-03T06:16:02;5.88;;;1.20;;
56161;SDS011;42045;52.986;6.014;2022-09-03T06:18:30;2.78;;;1.50;;
56161;SDS011;42045;52.986;6.014;2022-09-03T06:25:28;7.57;;;1.40;;
56161;SDS011;42045;52.986;6.014;2022-09-03T06:27:54;3.55;;;1.63;;
56161;SDS011;42045;52.986;6.014;2022-09-03T06:30:19;5.22;;;1.65;;
56161;SDS011;42045;52.986;6.014;2022-09-03T06:32:47;3.35;;;1.67;;
56161;SDS011;42045;52.986;6.014;2022-09-03T06:35:18;6.03;;;1.63;;
56161;SDS011;42045;52.986;6.014;2022-09-03T06:37:43;3.65;;;1.70;;
56161;SDS011;42045;52.986;6.014;2022-09-03T06:40:09;2.05;;;1.30;;
56161;SDS011;42045;52.986;6.014;2022-09-03T06:42:54;5.20;;;1.58;;
56161;SDS011;42045;52.986;6.014;2022-09-03T06:45:26;4.60;;;1.63;;
56161;SDS011;42045;52.986;6.014;2022-09-03T06:47:53;6.78;;;1.50;;
56161;SDS011;42045;52.986;6.014;2022-09-03T06:50:19;5.72;;;1.85;;
56161;SDS011;42045;52.986;6.014;2022-09-03T06:52:49;4.53;;;1.70;;
56161;SDS011;42045;52.986;6.014;2022-09-03T06:57:43;3.88;;;1.60;;
56161;SDS011;42045;52.986;6.014;2022-09-03T07:00:09;4.15;;;1.55;;
56161;SDS011;42045;52.986;6.014;2022-09-03T07:02:35;7.00;;;1.52;;
56161;SDS011;42045;52.986;6.014;2022-09-03T07:05:01;2.75;;;1.50;;
56161;SDS011;42045;52.986;6.014;2022-09-03T07:07:26;6.28;;;1.52;;
56161;SDS011;42045;52.986;6.014;2022-09-03T07:09:52;2.78;;;1.35;;
56161;SDS011;42045;52.986;6.014;2022-09-03T07:12:18;2.25;;;1.30;;
56161;SDS011;42045;52.986;6.014;2022-09-03T07:14:45;2.33;;;1.38;;
56161;SDS011;42045;52.986;6.014;2022-09-03T07:17:11;4.72;;;1.80;;
56161;SDS011;42045;52.986;6.014;2022-09-03T07:19:37;3.42;;;1.80;;
56161;SDS011;42045;52.986;6.014;2022-09-03T07:22:02;6.05;;;1.65;;
56161;SDS011;42045;52.986;6.014;2022-09-03T07:24:29;2.35;;;1.63;;
56161;SDS011;42045;52.986;6.014;2022-09-03T07:26:58;4.15;;;1.50;;
56161;SDS011;42045;52.986;6.014;2022-09-03T07:29:24;2.67;;;1.67;;
56161;SDS011;42045;52.986;6.014;2022-09-03T07:31:50;2.25;;;1.60;;
56161;SDS011;42045;52.986;6.014;2022-09-03T07:34:15;2.58;;;1.45;;
56161;SDS011;42045;52.986;6.014;2022-09-03T07:36:43;4.35;;;1.70;;
56161;SDS011;42045;52.986;6.014;2022-09-03T07:39:11;6.22;;;1.75;;
56161;SDS011;42045;52.986;6.014;2022-09-03T07:41:38;3.03;;;1.73;;
56161;SDS011;42045;52.986;6.014;2022-09-03T07:44:07;4.85;;;1.50;;
56161;SDS011;42045;52.986;6.014;2022-09-03T07:46:35;1.95;;;1.48;;
56161;SDS011;42045;52.986;6.014;2022-09-03T07:49:02;2.83;;;1.58;;
56161;SDS011;42045;52.986;6.014;2022-09-03T07:51:35;5.00;;;1.70;;
56161;SDS011;42045;52.986;6.014;2022-09-03T07:54:06;5.68;;;1.60;;
56161;SDS011;42045;52.986;6.014;2022-09-03T07:56:40;4.95;;;1.70;;
56161;SDS011;42045;52.986;6.014;2022-09-03T07:59:06;4.40;;;1.50;;
56161;SDS011;42045;52.986;6.014;2022-09-03T08:01:33;2.75;;;1.40;;
56161;SDS011;42045;52.986;6.014;2022-09-03T08:04:00;3.65;;;1.45;;
56161;SDS011;42045;52.986;6.014;2022-09-03T08:06:27;6.50;;;1.50;;
56161;SDS011;42045;52.986;6.014;2022-09-03T08:08:54;3.67;;;1.50;;
56161;SDS011;42045;52.986;6.014;2022-09-03T08:11:25;3.05;;;1.42;;
56161;SDS011;42045;52.986;6.014;2022-09-03T08:13:55;4.07;;;1.60;;
56161;SDS011;42045;52.986;6.014;2022-09-03T08:16:34;2.50;;;1.35;;
56161;SDS011;42045;52.986;6.014;2022-09-03T08:19:01;4.40;;;1.35;;
56161;SDS011;42045;52.986;6.014;2022-09-03T08:21:30;4.40;;;1.52;;
56161;SDS011;42045;52.986;6.014;2022-09-03T08:23:56;9.05;;;1.90;;
56161;SDS011;42045;52.986;6.014;2022-09-03T08:26:31;3.67;;;1.38;;
56161;SDS011;42045;52.986;6.014;2022-09-03T08:28:58;5.60;;;1.95;;
56161;SDS011;42045;52.986;6.014;2022-09-03T08:31:25;2.47;;;1.65;;
56161;SDS011;42045;52.986;6.014;2022-09-03T08:33:53;5.22;;;1.80;;
56161;SDS011;42045;52.986;6.014;2022-09-03T08:36:24;4.68;;;1.60;;
56161;SDS011;42045;52.986;6.014;2022-09-03T08:38:54;6.25;;;1.50;;
56161;SDS011;42045;52.986;6.014;2022-09-03T08:44:14;2.63;;;1.63;;
56161;SDS011;42045;52.986;6.014;2022-09-03T08:49:21;4.40;;;1.40;;
56161;SDS011;42045;52.986;6.014;2022-09-03T08:52:08;4.70;;;1.85;;
56161;SDS011;42045;52.986;6.014;2022-09-03T08:54:45;6.03;;;1.60;;
56161;SDS011;42045;52.986;6.014;2022-09-03T08:57:13;2.63;;;1.70;;
56161;SDS011;42045;52.986;6.014;2022-09-03T08:59:43;3.90;;;1.60;;
56161;SDS011;42045;52.986;6.014;2022-09-03T09:05:08;6.15;;;1.55;;
56161;SDS011;42045;52.986;6.014;2022-09-03T09:08:02;3.67;;;1.40;;
56161;SDS011;42045;52.986;6.014;2022-09-03T09:16:08;6.65;;;1.58;;
56161;SDS011;42045;52.986;6.014;2022-09-03T09:21:58;3.20;;;1.40;;
56161;SDS011;42045;52.986;6.014;2022-09-03T09:24:26;2.67;;;1.60;;
56161;SDS011;42045;52.986;6.014;2022-09-03T09:26:58;3.45;;;1.45;;
56161;SDS011;42045;52.986;6.014;2022-09-03T09:29:29;2.70;;;1.60;;
56161;SDS011;42045;52.986;6.014;2022-09-03T09:31:57;2.03;;;1.40;;
56161;SDS011;42045;52.986;6.014;2022-09-03T09:34:23;1.30;;;1.13;;
56161;SDS011;42045;52.986;6.014;2022-09-03T09:36:52;11.05;;;1.50;;
56161;SDS011;42045;52.986;6.014;2022-09-03T09:39:20;3.72;;;1.58;;
56161;SDS011;42045;52.986;6.014;2022-09-03T09:44:46;2.22;;;1.60;;
56161;SDS011;42045;52.986;6.014;2022-09-03T09:47:12;6.70;;;2.20;;
56161;SDS011;42045;52.986;6.014;2022-09-03T09:52:19;4.70;;;2.25;;
56161;SDS011;42045;52.986;6.014;2022-09-03T09:54:50;3.47;;;1.60;;
56161;SDS011;42045;52.986;6.014;2022-09-03T09:57:20;3.63;;;1.95;;
56161;SDS011;42045;52.986;6.014;2022-09-03T10:02:46;5.10;;;2.20;;
56161;SDS011;42045;52.986;6.014;2022-09-03T10:05:22;6.32;;;1.60;;
56161;SDS011;42045;52.986;6.014;2022-09-03T10:07:57;7.38;;;1.58;;
56161;SDS011;42045;52.986;6.014;2022-09-03T10:10:28;3.65;;;2.00;;
56161;SDS011;42045;52.986;6.014;2022-09-03T10:15:53;4.63;;;2.00;;
56161;SDS011;42045;52.986;6.014;2022-09-03T10:18:52;5.05;;;1.88;;
56161;SDS011;42045;52.986;6.014;2022-09-03T10:24:59;2.20;;;1.40;;
56161;SDS011;42045;52.986;6.014;2022-09-03T10:27:27;4.55;;;1.45;;
56161;SDS011;42045;52.986;6.014;2022-09-03T10:29:53;3.35;;;1.33;;
56161;SDS011;42045;52.986;6.014;2022-09-03T10:32:37;4.82;;;1.50;;
56161;SDS011;42045;52.986;6.014;2022-09-03T10:35:30;4.43;;;1.75;;
56161;SDS011;42045;52.986;6.014;2022-09-03T10:40:50;4.25;;;1.60;;
56161;SDS011;42045;52.986;6.014;2022-09-03T10:46:25;4.35;;;1.67;;
56161;SDS011;42045;52.986;6.014;2022-09-03T11:00:16;3.58;;;1.75;;
56161;SDS011;42045;52.986;6.014;2022-09-03T11:05:51;3.28;;;1.42;;
56161;SDS011;42045;52.986;6.014;2022-09-03T11:08:30;3.50;;;1.30;;
56161;SDS011;42045;52.986;6.014;2022-09-03T11:11:14;4.32;;;1.60;;
56161;SDS011;42045;52.986;6.014;2022-09-03T11:13:48;1.70;;;1.15;;
56161;SDS011;42045;52.986;6.014;2022-09-03T11:16:25;6.45;;;1.83;;
56161;SDS011;42045;52.986;6.014;2022-09-03T11:19:09;3.17;;;1.55;;
56161;SDS011;42045;52.986;6.014;2022-09-03T11:21:39;4.38;;;1.30;;
56161;SDS011;42045;52.986;6.014;2022-09-03T11:26:54;2.35;;;1.38;;
56161;SDS011;42045;52.986;6.014;2022-09-03T11:35:12;4.80;;;1.45;;
56161;SDS011;42045;52.986;6.014;2022-09-03T11:37:48;2.33;;;1.40;;
56161;SDS011;42045;52.986;6.014;2022-09-03T11:40:19;3.55;;;1.55;;
56161;SDS011;42045;52.986;6.014;2022-09-03T11:43:03;3.30;;;1.30;;
56161;SDS011;42045;52.986;6.014;2022-09-03T11:48:41;2.97;;;1.70;;
56161;SDS011;42045;52.986;6.014;2022-09-03T11:56:47;5.40;;;1.35;;
56161;SDS011;42045;52.986;6.014;2022-09-03T11:59:23;2.85;;;1.48;;
56161;SDS011;42045;52.986;6.014;2022-09-03T12:01:51;2.13;;;1.45;;
56161;SDS011;42045;52.986;6.014;2022-09-03T12:04:25;6.45;;;1.70;;
56161;SDS011;42045;52.986;6.014;2022-09-03T12:23:32;2.05;;;1.23;;
56161;SDS011;42045;52.986;6.014;2022-09-03T12:26:10;3.65;;;1.70;;
56161;SDS011;42045;52.986;6.014;2022-09-03T12:28:39;4.47;;;1.50;;
56161;SDS011;42045;52.986;6.014;2022-09-03T12:31:08;5.03;;;1.33;;
56161;SDS011;42045;52.986;6.014;2022-09-03T12:33:44;3.40;;;1.60;;
56161;SDS011;42045;52.986;6.014;2022-09-03T12:36:12;2.10;;;1.27;;
56161;SDS011;42045;52.986;6.014;2022-09-03T12:38:39;5.15;;;1.50;;
56161;SDS011;42045;52.986;6.014;2022-09-03T12:41:18;4.05;;;1.50;;
56161;SDS011;42045;52.986;6.014;2022-09-03T12:43:55;3.33;;;1.80;;
56161;SDS011;42045;52.986;6.014;2022-09-03T12:46:29;2.60;;;1.58;;
56161;SDS011;42045;52.986;6.014;2022-09-03T12:48:58;2.20;;;1.40;;
56161;SDS011;42045;52.986;6.014;2022-09-03T12:54:05;3.40;;;1.40;;
56161;SDS011;42045;52.986;6.014;2022-09-03T12:56:43;4.82;;;1.63;;
56161;SDS011;42045;52.986;6.014;2022-09-03T12:59:13;2.40;;;1.30;;
56161;SDS011;42045;52.986;6.014;2022-09-03T13:01:48;2.83;;;1.38;;
56161;SDS011;42045;52.986;6.014;2022-09-03T13:04:18;1.95;;;1.30;;
56161;SDS011;42045;52.986;6.014;2022-09-03T13:07:01;3.35;;;1.52;;
56161;SDS011;42045;52.986;6.014;2022-09-03T13:09:32;3.88;;;1.63;;
56161;SDS011;42045;52.986;6.014;2022-09-03T13:12:00;2.88;;;1.83;;
56161;SDS011;42045;52.986;6.014;2022-09-03T13:14:40;2.95;;;1.60;;
56161;SDS011;42045;52.986;6.014;2022-09-03T13:28:37;3.88;;;1.48;;
56161;SDS011;42045;52.986;6.014;2022-09-03T13:33:56;5.38;;;1.60;;
56161;SDS011;42045;52.986;6.014;2022-09-03T13:36:33;4.55;;;1.60;;
56161;SDS011;42045;52.986;6.014;2022-09-03T13:39:17;2.63;;;1.50;;
56161;SDS011;42045;52.986;6.014;2022-09-03T13:41:49;3.70;;;1.48;;
56161;SDS011;42045;52.986;6.014;2022-09-03T13:44:41;2.97;;;1.30;;
56161;SDS011;42045;52.986;6.014;2022-09-03T13:49:55;3.42;;;1.40;;
56161;SDS011;42045;52.986;6.014;2022-09-03T13:55:46;3.55;;;1.35;;
56161;SDS011;42045;52.986;6.014;2022-09-03T14:04:00;2.17;;;1.30;;
56161;SDS011;42045;52.986;6.014;2022-09-03T14:06:39;5.07;;;1.35;;
56161;SDS011;42045;52.986;6.014;2022-09-03T14:17:17;2.50;;;1.25;;
56161;SDS011;42045;52.986;6.014;2022-09-03T14:19:56;2.25;;;1.50;;
56161;SDS011;42045;52.986;6.014;2022-09-03T14:25:24;3.08;;;1.27;;
56161;SDS011;42045;52.986;6.014;2022-09-03T14:27:51;2.45;;;1.40;;
56161;SDS011;42045;52.986;6.014;2022-09-03T14:30:24;3.20;;;1.35;;
56161;SDS011;42045;52.986;6.014;2022-09-03T14:33:15;3.45;;;1.58;;
56161;SDS011;42045;52.986;6.014;2022-09-03T14:38:43;2.80;;;1.50;;
56161;SDS011;42045;52.986;6.014;2022-09-03T14:41:27;3.58;;;1.40;;
56161;SDS011;42045;52.986;6.014;2022-09-03T14:50:02;2.70;;;1.45;;
56161;SDS011;42045;52.986;6.014;2022-09-03T15:01:05;2.65;;;1.58;;
56161;SDS011;42045;52.986;6.014;2022-09-03T15:03:55;7.72;;;1.60;;
56161;SDS011;42045;52.986;6.014;2022-09-03T15:06:55;3.22;;;1.50;;
56161;SDS011;42045;52.986;6.014;2022-09-03T15:09:46;4.30;;;1.40;;
56161;SDS011;42045;52.986;6.014;2022-09-03T15:12:34;3.95;;;1.10;;
56161;SDS011;42045;52.986;6.014;2022-09-03T15:15:17;4.22;;;1.40;;
56161;SDS011;42045;52.986;6.014;2022-09-03T15:20:21;3.72;;;1.58;;
56161;SDS011;42045;52.986;6.014;2022-09-03T15:23:15;3.05;;;1.48;;
56161;SDS011;42045;52.986;6.014;2022-09-03T15:29:16;2.88;;;1.58;;
56161;SDS011;42045;52.986;6.014;2022-09-03T15:37:00;5.53;;;1.40;;
56161;SDS011;42045;52.986;6.014;2022-09-03T15:39:35;3.28;;;1.45;;
56161;SDS011;42045;52.986;6.014;2022-09-03T15:42:25;3.63;;;1.47;;
56161;SDS011;42045;52.986;6.014;2022-09-03T15:44:53;2.85;;;1.50;;
56161;SDS011;42045;52.986;6.014;2022-09-03T15:47:29;3.90;;;1.50;;
56161;SDS011;42045;52.986;6.014;2022-09-03T15:52:53;2.63;;;1.70;;
56161;SDS011;42045;52.986;6.014;2022-09-03T15:55:49;4.88;;;1.40;;
56161;SDS011;42045;52.986;6.014;2022-09-03T16:04:30;4.03;;;1.60;;
56161;SDS011;42045;52.986;6.014;2022-09-03T16:25:15;2.50;;;1.30;;
56161;SDS011;42045;52.986;6.014;2022-09-03T16:27:59;2.90;;;1.50;;
56161;SDS011;42045;52.986;6.014;2022-09-03T16:33:32;3.38;;;1.30;;
56161;SDS011;42045;52.986;6.014;2022-09-03T16:36:14;3.88;;;1.33;;
56161;SDS011;42045;52.986;6.014;2022-09-03T16:38:57;3.40;;;1.20;;
56161;SDS011;42045;52.986;6.014;2022-09-03T16:41:33;3.58;;;1.40;;
56161;SDS011;42045;52.986;6.014;2022-09-03T16:47:08;3.45;;;1.30;;
56161;SDS011;42045;52.986;6.014;2022-09-03T16:57:54;3.35;;;1.40;;
56161;SDS011;42045;52.986;6.014;2022-09-03T17:00:53;4.30;;;1.40;;
56161;SDS011;42045;52.986;6.014;2022-09-03T17:11:53;5.32;;;1.65;;
56161;SDS011;42045;52.986;6.014;2022-09-03T17:14:47;3.65;;;1.27;;
56161;SDS011;42045;52.986;6.014;2022-09-03T17:25:52;2.95;;;2.10;;
56161;SDS011;42045;52.986;6.014;2022-09-03T17:28:42;2.83;;;2.08;;
56161;SDS011;42045;52.986;6.014;2022-09-03T17:34:49;4.68;;;1.50;;
56161;SDS011;42045;52.986;6.014;2022-09-03T17:46:05;3.95;;;1.83;;
56161;SDS011;42045;52.986;6.014;2022-09-03T18:05:15;2.35;;;1.48;;
56161;SDS011;42045;52.986;6.014;2022-09-03T18:07:48;5.43;;;1.77;;
56161;SDS011;42045;52.986;6.014;2022-09-03T18:17:57;7.20;;;1.85;;
56161;SDS011;42045;52.986;6.014;2022-09-03T18:20:39;5.90;;;1.73;;
56161;SDS011;42045;52.986;6.014;2022-09-03T18:23:45;7.10;;;1.60;;
56161;SDS011;42045;52.986;6.014;2022-09-03T18:26:51;6.22;;;1.95;;
56161;SDS011;42045;52.986;6.014;2022-09-03T18:32:38;7.85;;;1.80;;
56161;SDS011;42045;52.986;6.014;2022-09-03T18:35:23;6.53;;;1.77;;
56161;SDS011;42045;52.986;6.014;2022-09-03T18:38:10;6.50;;;1.88;;
56161;SDS011;42045;52.986;6.014;2022-09-03T18:41:15;2.95;;;1.75;;
56161;SDS011;42045;52.986;6.014;2022-09-03T18:50:52;4.32;;;1.77;;
56161;SDS011;42045;52.986;6.014;2022-09-03T18:56:52;4.25;;;1.75;;
56161;SDS011;42045;52.986;6.014;2022-09-03T18:59:44;6.72;;;2.05;;
56161;SDS011;42045;52.986;6.014;2022-09-03T19:03:01;3.45;;;1.70;;
56161;SDS011;42045;52.986;6.014;2022-09-03T19:06:11;5.22;;;1.90;;
56161;SDS011;42045;52.986;6.014;2022-09-03T19:11:48;2.50;;;2.00;;
56161;SDS011;42045;52.986;6.014;2022-09-03T19:15:01;4.45;;;1.95;;
56161;SDS011;42045;52.986;6.014;2022-09-03T19:21:57;7.45;;;2.00;;
56161;SDS011;42045;52.986;6.014;2022-09-03T19:24:25;6.05;;;2.40;;
56161;SDS011;42045;52.986;6.014;2022-09-03T19:30:06;4.55;;;2.08;;
56161;SDS011;42045;52.986;6.014;2022-09-03T19:45:49;7.45;;;2.22;;
56161;SDS011;42045;52.986;6.014;2022-09-03T19:54:46;5.20;;;2.42;;
56161;SDS011;42045;52.986;6.014;2022-09-03T19:57:36;7.03;;;2.47;;
56161;SDS011;42045;52.986;6.014;2022-09-03T20:00:24;8.10;;;2.20;;
56161;SDS011;42045;52.986;6.014;2022-09-03T20:03:08;6.43;;;2.40;;
56161;SDS011;42045;52.986;6.014;2022-09-03T20:05:55;6.57;;;2.78;;
56161;SDS011;42045;52.986;6.014;2022-09-03T20:08:41;5.18;;;2.25;;
56161;SDS011;42045;52.986;6.014;2022-09-03T20:11:27;5.78;;;2.67;;
56161;SDS011;42045;52.986;6.014;2022-09-03T20:13:56;8.95;;;2.22;;
56161;SDS011;42045;52.986;6.014;2022-09-03T20:41:22;6.97;;;2.60;;
56161;SDS011;42045;52.986;6.014;2022-09-03T20:44:12;4.68;;;2.00;;
56161;SDS011;42045;52.986;6.014;2022-09-03T20:53:14;5.10;;;2.78;;
56161;SDS011;42045;52.986;6.014;2022-09-03T21:08:47;8.73;;;3.03;;
56161;SDS011;42045;52.986;6.014;2022-09-03T21:11:34;3.25;;;2.50;;
56161;SDS011;42045;52.986;6.014;2022-09-03T21:20:12;4.22;;;2.45;;
56161;SDS011;42045;52.986;6.014;2022-09-03T21:25:54;6.93;;;2.28;;
56161;SDS011;42045;52.986;6.014;2022-09-03T21:28:39;6.65;;;2.22;;
56161;SDS011;42045;52.986;6.014;2022-09-03T21:31:21;7.20;;;2.72;;
56161;SDS011;42045;52.986;6.014;2022-09-03T21:34:06;8.98;;;2.47;;
56161;SDS011;42045;52.986;6.014;2022-09-03T21:36:35;4.18;;;1.90;;
56161;SDS011;42045;52.986;6.014;2022-09-03T21:41:47;8.80;;;2.15;;
56161;SDS011;42045;52.986;6.014;2022-09-03T21:45:03;5.00;;;2.25;;
56161;SDS011;42045;52.986;6.014;2022-09-03T21:47:10;5.50;;;1.95;;
56161;SDS011;42045;52.986;6.014;2022-09-03T21:49:44;2.88;;;1.98;;
56161;SDS011;42045;52.986;6.014;2022-09-03T21:55:19;5.32;;;2.03;;
56161;SDS011;42045;52.986;6.014;2022-09-03T22:00:45;5.88;;;2.38;;
56161;SDS011;42045;52.986;6.014;2022-09-03T22:03:12;3.83;;;2.00;;
56161;SDS011;42045;52.986;6.014;2022-09-03T22:05:58;5.28;;;2.13;;
56161;SDS011;42045;52.986;6.014;2022-09-03T22:08:42;3.80;;;2.15;;
56161;SDS011;42045;52.986;6.014;2022-09-03T22:11:21;7.15;;;2.30;;
56161;SDS011;42045;52.986;6.014;2022-09-03T22:14:11;5.13;;;1.85;;
56161;SDS011;42045;52.986;6.014;2022-09-03T22:16:44;4.50;;;2.20;;
56161;SDS011;42045;52.986;6.014;2022-09-03T22:19:23;3.13;;;1.73;;
56161;SDS011;42045;52.986;6.014;2022-09-03T22:21:53;6.47;;;2.47;;
56161;SDS011;42045;52.986;6.014;2022-09-03T22:37:58;6.85;;;2.17;;